DURO2: Washita River Durwood, OK

                                SHEF ID:       DURO2     Washita River near Dickson, OK
STATION TYPE:
Regulating: Stage = 27.00, Flow = 32534

PRECIP PRECIP(A) STAGE STAGE(2) RIV-FLOW BAT-LOAD
in in ft ft cfs volt
Ccp-Rev Ccp-Rev Ccp-Rev Ccp-Rev Ccp-Rev Ccp-Rev
(America/Chicago)
04/28 00:00 0.00 ---- 9.04 9.02 1200 12.39
04/28 01:00 0.00 ---- 9.00 8.99 1165 12.37
04/28 02:00 0.00 ---- 8.97 8.95 1140 12.36
04/28 03:00 0.00 ---- 8.93 8.91 1107 12.34
04/28 04:00 0.00 ---- 8.89 8.88 1075 12.34
04/28 05:00 0.00 ---- 8.86 8.84 1051 12.34
04/28 06:00 0.00 ---- 8.82 8.80 1019 12.34
04/28 07:00 0.00 ---- 8.79 8.77 996 12.33
04/28 08:00 0.00 ---- 8.76 8.75 975 12.33
04/28 09:00 0.00 ---- 8.73 8.71 957 12.46
04/28 10:00 0.01 ---- 8.71 8.70 945 12.34
04/28 11:00 0.00 ---- 8.70 8.68 939 12.64
04/28 12:00 0.00 ---- 8.66 8.64 916 ----
04/28 13:00 0.00 ---- 8.63 8.62 898 13.23
04/28 14:00 0.00 ---- 8.61 8.59 887 13.23
04/28 15:00 0.07 ---- 8.59 8.60 875 12.89
04/28 16:00 0.00 ---- 8.59 8.58 875 12.81
04/28 17:00 0.00 ---- 8.57 8.56 864 13.05
04/28 18:00 0.00 ---- 8.56 8.54 858 12.71
04/28 19:00 0.00 ---- 8.55 8.53 853 12.83
04/28 20:00 0.00 ---- 8.54 8.52 847 12.78
04/28 21:00 0.00 ---- 8.54 8.52 847 12.53
04/28 22:00 0.00 ---- 8.53 8.51 841 12.48
04/28 23:00 0.00 ---- 8.53 8.52 841 12.45
Data processed at Wed 29Apr2026 04:36 GMT

NOTICE: If you are parsing this page

Please convert to using our Data API. Starting early 2026 we will be migrating to: https://water.usace.army.mil with modern pages rendered in JavaScript. When this migration completes you will no longer be able to scrape this page! CWMSDataAPI (CDA)

Timeseries IDs (TSIDs)

TSIDs used from left to right in the data table
DICK.Precip-Inc.Total.1Hour.1Hour.Ccp-Rev
DICK.Precip-Inc Alt.Total.1Hour.1Hour.Ccp-Rev
DICK.Stage.Inst.1Hour.0.Ccp-Rev
DICK.Flow.Inst.1Hour.0.Ccp-Rev
DICK.Volt-Battery Load.Inst.1Hour.0.Ccp-Rev

                            

All information presented herein is the property of the government of the United States of America and may be revised or deleted at any time without prior notice. Dissemination of this information without the expressed written consent of the Public Affairs Office, Tulsa District U.S. Army Corps of Engineers is strictly prohibited. These data are gathered electronically and, as presented, have NOT undergone any form of quality control. These data are NOT guaranteed to be valid or correct.